METAR Data
IDs: Format: Raw Decoded Include TAF

Data at: 0837 UTC 13 Aug 2022

EDHI 130820Z AUTO VRB03KT 9999 // NCD 27/13 Q1019